sensor_id;sensor_type;location;lat;lon;timestamp;P1;durP1;ratioP1;P2;durP2;ratioP2
82022;SDS011;71575;49.908;18.356;2023-08-07T00:01:37;9.07;;;4.47;;
82022;SDS011;71575;49.908;18.356;2023-08-07T00:04:03;10.70;;;4.15;;
82022;SDS011;71575;49.908;18.356;2023-08-07T00:06:28;8.90;;;3.63;;
82022;SDS011;71575;49.908;18.356;2023-08-07T00:08:54;9.07;;;4.10;;
82022;SDS011;71575;49.908;18.356;2023-08-07T00:11:19;8.15;;;3.95;;
82022;SDS011;71575;49.908;18.356;2023-08-07T00:13:45;7.00;;;3.40;;
82022;SDS011;71575;49.908;18.356;2023-08-07T00:16:10;7.07;;;3.38;;
82022;SDS011;71575;49.908;18.356;2023-08-07T00:18:36;8.18;;;4.25;;
82022;SDS011;71575;49.908;18.356;2023-08-07T00:21:01;6.95;;;3.25;;
82022;SDS011;71575;49.908;18.356;2023-08-07T00:23:27;7.47;;;3.17;;
82022;SDS011;71575;49.908;18.356;2023-08-07T00:25:53;6.30;;;3.25;;
82022;SDS011;71575;49.908;18.356;2023-08-07T00:28:18;8.10;;;2.70;;
82022;SDS011;71575;49.908;18.356;2023-08-07T00:30:44;8.20;;;2.72;;
82022;SDS011;71575;49.908;18.356;2023-08-07T00:33:09;7.28;;;2.83;;
82022;SDS011;71575;49.908;18.356;2023-08-07T00:35:35;6.32;;;3.03;;
82022;SDS011;71575;49.908;18.356;2023-08-07T00:38:00;6.63;;;3.03;;
82022;SDS011;71575;49.908;18.356;2023-08-07T00:40:26;8.20;;;3.47;;
82022;SDS011;71575;49.908;18.356;2023-08-07T00:42:51;7.35;;;3.03;;
82022;SDS011;71575;49.908;18.356;2023-08-07T00:45:17;6.90;;;3.60;;
82022;SDS011;71575;49.908;18.356;2023-08-07T00:47:43;7.15;;;3.22;;
82022;SDS011;71575;49.908;18.356;2023-08-07T00:50:09;6.53;;;2.83;;
82022;SDS011;71575;49.908;18.356;2023-08-07T00:52:34;7.25;;;3.00;;
82022;SDS011;71575;49.908;18.356;2023-08-07T00:55:00;8.73;;;5.50;;
82022;SDS011;71575;49.908;18.356;2023-08-07T00:57:26;8.15;;;3.70;;
82022;SDS011;71575;49.908;18.356;2023-08-07T00:59:52;8.25;;;4.57;;
82022;SDS011;71575;49.908;18.356;2023-08-07T01:02:17;9.05;;;4.60;;
82022;SDS011;71575;49.908;18.356;2023-08-07T01:04:43;8.77;;;5.10;;
82022;SDS011;71575;49.908;18.356;2023-08-07T01:07:09;8.85;;;4.35;;
82022;SDS011;71575;49.908;18.356;2023-08-07T01:09:35;9.80;;;5.28;;
82022;SDS011;71575;49.908;18.356;2023-08-07T01:12:16;9.40;;;5.07;;
82022;SDS011;71575;49.908;18.356;2023-08-07T01:17:17;11.57;;;5.70;;
82022;SDS011;71575;49.908;18.356;2023-08-07T01:19:45;13.68;;;7.00;;
82022;SDS011;71575;49.908;18.356;2023-08-07T01:22:16;11.68;;;5.35;;
82022;SDS011;71575;49.908;18.356;2023-08-07T01:24:43;12.25;;;5.43;;
82022;SDS011;71575;49.908;18.356;2023-08-07T01:32:22;9.50;;;4.32;;
82022;SDS011;71575;49.908;18.356;2023-08-07T01:34:53;9.55;;;4.88;;
82022;SDS011;71575;49.908;18.356;2023-08-07T01:37:19;9.82;;;4.78;;
82022;SDS011;71575;49.908;18.356;2023-08-07T01:39:46;10.52;;;4.63;;
82022;SDS011;71575;49.908;18.356;2023-08-07T01:42:13;8.13;;;3.75;;
82022;SDS011;71575;49.908;18.356;2023-08-07T01:44:39;7.90;;;3.40;;
82022;SDS011;71575;49.908;18.356;2023-08-07T01:47:05;6.70;;;2.28;;
82022;SDS011;71575;49.908;18.356;2023-08-07T01:49:31;6.57;;;2.60;;
82022;SDS011;71575;49.908;18.356;2023-08-07T01:51:56;6.38;;;2.90;;
82022;SDS011;71575;49.908;18.356;2023-08-07T01:54:22;7.88;;;2.85;;
82022;SDS011;71575;49.908;18.356;2023-08-07T01:56:47;9.73;;;2.78;;
82022;SDS011;71575;49.908;18.356;2023-08-07T01:59:13;5.95;;;2.17;;
82022;SDS011;71575;49.908;18.356;2023-08-07T02:01:38;6.13;;;2.35;;
82022;SDS011;71575;49.908;18.356;2023-08-07T02:04:04;7.57;;;2.72;;
82022;SDS011;71575;49.908;18.356;2023-08-07T02:06:29;7.68;;;3.40;;
82022;SDS011;71575;49.908;18.356;2023-08-07T02:08:55;5.30;;;1.85;;
82022;SDS011;71575;49.908;18.356;2023-08-07T02:11:20;6.00;;;2.67;;
82022;SDS011;71575;49.908;18.356;2023-08-07T02:13:46;6.25;;;2.90;;
82022;SDS011;71575;49.908;18.356;2023-08-07T02:16:11;5.68;;;2.10;;
82022;SDS011;71575;49.908;18.356;2023-08-07T02:18:37;6.28;;;2.72;;
82022;SDS011;71575;49.908;18.356;2023-08-07T02:21:03;6.03;;;2.65;;
82022;SDS011;71575;49.908;18.356;2023-08-07T02:23:28;6.18;;;2.10;;
82022;SDS011;71575;49.908;18.356;2023-08-07T02:25:54;4.13;;;1.80;;
82022;SDS011;71575;49.908;18.356;2023-08-07T02:28:19;4.03;;;1.20;;
82022;SDS011;71575;49.908;18.356;2023-08-07T02:30:45;4.30;;;1.02;;
82022;SDS011;71575;49.908;18.356;2023-08-07T02:33:11;4.93;;;1.42;;
82022;SDS011;71575;49.908;18.356;2023-08-07T02:35:37;5.07;;;1.50;;
82022;SDS011;71575;49.908;18.356;2023-08-07T02:38:03;3.90;;;0.98;;
82022;SDS011;71575;49.908;18.356;2023-08-07T02:40:28;6.35;;;1.67;;
82022;SDS011;71575;49.908;18.356;2023-08-07T02:42:54;3.67;;;1.00;;
82022;SDS011;71575;49.908;18.356;2023-08-07T02:45:19;6.22;;;0.98;;
82022;SDS011;71575;49.908;18.356;2023-08-07T02:47:45;5.25;;;1.40;;
82022;SDS011;71575;49.908;18.356;2023-08-07T02:50:11;4.30;;;0.93;;
82022;SDS011;71575;49.908;18.356;2023-08-07T02:52:36;4.63;;;1.85;;
82022;SDS011;71575;49.908;18.356;2023-08-07T02:55:02;4.13;;;0.90;;
82022;SDS011;71575;49.908;18.356;2023-08-07T02:57:27;3.95;;;0.93;;
82022;SDS011;71575;49.908;18.356;2023-08-07T02:59:53;4.60;;;1.15;;
82022;SDS011;71575;49.908;18.356;2023-08-07T03:02:18;4.07;;;1.30;;
82022;SDS011;71575;49.908;18.356;2023-08-07T03:04:44;4.43;;;1.38;;
82022;SDS011;71575;49.908;18.356;2023-08-07T03:07:10;3.72;;;1.33;;
82022;SDS011;71575;49.908;18.356;2023-08-07T03:09:35;6.57;;;1.35;;
82022;SDS011;71575;49.908;18.356;2023-08-07T03:12:01;4.22;;;1.17;;
82022;SDS011;71575;49.908;18.356;2023-08-07T03:14:26;4.10;;;1.00;;
82022;SDS011;71575;49.908;18.356;2023-08-07T03:16:52;2.25;;;0.70;;
82022;SDS011;71575;49.908;18.356;2023-08-07T03:19:17;2.80;;;0.50;;
82022;SDS011;71575;49.908;18.356;2023-08-07T03:21:43;1.70;;;0.25;;
82022;SDS011;71575;49.908;18.356;2023-08-07T03:24:08;2.03;;;0.30;;
82022;SDS011;71575;49.908;18.356;2023-08-07T03:26:34;1.98;;;0.50;;
82022;SDS011;71575;49.908;18.356;2023-08-07T03:28:59;1.45;;;0.30;;
82022;SDS011;71575;49.908;18.356;2023-08-07T03:31:25;3.33;;;0.20;;
82022;SDS011;71575;49.908;18.356;2023-08-07T03:33:50;1.75;;;0.30;;
82022;SDS011;71575;49.908;18.356;2023-08-07T03:36:16;2.10;;;0.30;;
82022;SDS011;71575;49.908;18.356;2023-08-07T03:38:41;1.25;;;0.20;;
82022;SDS011;71575;49.908;18.356;2023-08-07T03:41:07;2.45;;;0.20;;
82022;SDS011;71575;49.908;18.356;2023-08-07T03:43:32;1.48;;;0.20;;
82022;SDS011;71575;49.908;18.356;2023-08-07T03:45:58;2.25;;;0.50;;
82022;SDS011;71575;49.908;18.356;2023-08-07T03:48:23;3.08;;;0.28;;
82022;SDS011;71575;49.908;18.356;2023-08-07T03:50:49;3.53;;;0.30;;
82022;SDS011;71575;49.908;18.356;2023-08-07T03:53:14;3.45;;;0.25;;
82022;SDS011;71575;49.908;18.356;2023-08-07T03:55:40;3.13;;;0.30;;
82022;SDS011;71575;49.908;18.356;2023-08-07T03:58:05;1.50;;;0.20;;
82022;SDS011;71575;49.908;18.356;2023-08-07T04:00:31;1.83;;;0.28;;
82022;SDS011;71575;49.908;18.356;2023-08-07T04:02:57;2.55;;;0.25;;
82022;SDS011;71575;49.908;18.356;2023-08-07T04:05:22;2.88;;;0.50;;
82022;SDS011;71575;49.908;18.356;2023-08-07T04:07:48;2.50;;;0.38;;
82022;SDS011;71575;49.908;18.356;2023-08-07T04:10:13;0.95;;;0.10;;
82022;SDS011;71575;49.908;18.356;2023-08-07T04:12:39;2.85;;;0.43;;
82022;SDS011;71575;49.908;18.356;2023-08-07T04:15:05;1.83;;;0.20;;
82022;SDS011;71575;49.908;18.356;2023-08-07T04:17:31;1.58;;;0.20;;
82022;SDS011;71575;49.908;18.356;2023-08-07T04:19:59;1.92;;;0.20;;
82022;SDS011;71575;49.908;18.356;2023-08-07T04:22:24;2.08;;;0.20;;
82022;SDS011;71575;49.908;18.356;2023-08-07T04:24:50;1.60;;;0.65;;
82022;SDS011;71575;49.908;18.356;2023-08-07T04:27:15;1.52;;;0.20;;
82022;SDS011;71575;49.908;18.356;2023-08-07T04:29:41;3.85;;;0.40;;
82022;SDS011;71575;49.908;18.356;2023-08-07T04:32:06;1.13;;;0.13;;
82022;SDS011;71575;49.908;18.356;2023-08-07T04:34:32;1.80;;;0.20;;
82022;SDS011;71575;49.908;18.356;2023-08-07T04:36:57;2.22;;;0.40;;
82022;SDS011;71575;49.908;18.356;2023-08-07T04:39:23;1.70;;;0.28;;
82022;SDS011;71575;49.908;18.356;2023-08-07T04:41:48;3.17;;;0.35;;
82022;SDS011;71575;49.908;18.356;2023-08-07T04:44:16;1.60;;;0.20;;
82022;SDS011;71575;49.908;18.356;2023-08-07T04:46:42;0.93;;;0.17;;
82022;SDS011;71575;49.908;18.356;2023-08-07T04:49:07;1.70;;;0.30;;
82022;SDS011;71575;49.908;18.356;2023-08-07T04:51:33;5.13;;;0.30;;
82022;SDS011;71575;49.908;18.356;2023-08-07T04:53:59;2.63;;;0.25;;
82022;SDS011;71575;49.908;18.356;2023-08-07T04:56:24;3.53;;;0.70;;
82022;SDS011;71575;49.908;18.356;2023-08-07T04:58:50;1.83;;;0.43;;
82022;SDS011;71575;49.908;18.356;2023-08-07T05:01:15;2.10;;;0.32;;
82022;SDS011;71575;49.908;18.356;2023-08-07T05:03:41;1.17;;;0.32;;
82022;SDS011;71575;49.908;18.356;2023-08-07T05:06:06;2.53;;;0.20;;
82022;SDS011;71575;49.908;18.356;2023-08-07T05:08:32;1.75;;;0.50;;
82022;SDS011;71575;49.908;18.356;2023-08-07T05:10:57;1.10;;;0.22;;
82022;SDS011;71575;49.908;18.356;2023-08-07T05:13:23;3.45;;;0.22;;
82022;SDS011;71575;49.908;18.356;2023-08-07T05:15:49;4.30;;;0.30;;
82022;SDS011;71575;49.908;18.356;2023-08-07T05:18:17;1.50;;;0.35;;
82022;SDS011;71575;49.908;18.356;2023-08-07T05:20:43;1.63;;;0.30;;
82022;SDS011;71575;49.908;18.356;2023-08-07T05:23:08;2.55;;;0.20;;
82022;SDS011;71575;49.908;18.356;2023-08-07T05:25:34;2.20;;;0.70;;
82022;SDS011;71575;49.908;18.356;2023-08-07T05:28:00;1.85;;;0.25;;
82022;SDS011;71575;49.908;18.356;2023-08-07T05:30:25;1.42;;;0.30;;
82022;SDS011;71575;49.908;18.356;2023-08-07T05:32:51;1.73;;;0.40;;
82022;SDS011;71575;49.908;18.356;2023-08-07T05:35:16;1.23;;;0.20;;
82022;SDS011;71575;49.908;18.356;2023-08-07T05:37:42;3.47;;;0.75;;
82022;SDS011;71575;49.908;18.356;2023-08-07T05:40:07;1.33;;;0.20;;
82022;SDS011;71575;49.908;18.356;2023-08-07T05:42:33;1.15;;;0.40;;
82022;SDS011;71575;49.908;18.356;2023-08-07T05:44:59;2.78;;;0.20;;
82022;SDS011;71575;49.908;18.356;2023-08-07T05:47:24;1.20;;;0.50;;
82022;SDS011;71575;49.908;18.356;2023-08-07T05:49:50;2.22;;;0.30;;
82022;SDS011;71575;49.908;18.356;2023-08-07T05:52:17;1.55;;;0.35;;
82022;SDS011;71575;49.908;18.356;2023-08-07T05:54:42;2.10;;;0.28;;
82022;SDS011;71575;49.908;18.356;2023-08-07T05:57:08;2.22;;;0.30;;
82022;SDS011;71575;49.908;18.356;2023-08-07T05:59:34;1.67;;;0.50;;
82022;SDS011;71575;49.908;18.356;2023-08-07T06:02:00;1.63;;;0.28;;
82022;SDS011;71575;49.908;18.356;2023-08-07T06:04:25;2.33;;;0.30;;
82022;SDS011;71575;49.908;18.356;2023-08-07T06:06:51;1.83;;;0.15;;
82022;SDS011;71575;49.908;18.356;2023-08-07T06:09:16;2.47;;;0.47;;
82022;SDS011;71575;49.908;18.356;2023-08-07T06:11:42;1.70;;;0.30;;
82022;SDS011;71575;49.908;18.356;2023-08-07T06:14:08;1.58;;;0.20;;
82022;SDS011;71575;49.908;18.356;2023-08-07T06:16:36;1.40;;;0.10;;
82022;SDS011;71575;49.908;18.356;2023-08-07T06:19:02;2.20;;;0.30;;
82022;SDS011;71575;49.908;18.356;2023-08-07T06:21:28;1.92;;;0.30;;
82022;SDS011;71575;49.908;18.356;2023-08-07T06:23:54;1.23;;;0.22;;
82022;SDS011;71575;49.908;18.356;2023-08-07T06:26:35;1.13;;;0.13;;
82022;SDS011;71575;49.908;18.356;2023-08-07T06:29:15;1.90;;;0.20;;
82022;SDS011;71575;49.908;18.356;2023-08-07T06:31:41;1.45;;;0.10;;
82022;SDS011;71575;49.908;18.356;2023-08-07T06:34:07;3.10;;;0.35;;
82022;SDS011;71575;49.908;18.356;2023-08-07T06:36:48;5.70;;;1.17;;
82022;SDS011;71575;49.908;18.356;2023-08-07T06:39:14;3.22;;;0.20;;
82022;SDS011;71575;49.908;18.356;2023-08-07T06:41:40;1.35;;;0.10;;
82022;SDS011;71575;49.908;18.356;2023-08-07T06:44:20;1.33;;;0.20;;
82022;SDS011;71575;49.908;18.356;2023-08-07T06:47:01;2.35;;;0.45;;
82022;SDS011;71575;49.908;18.356;2023-08-07T06:49:41;1.88;;;0.32;;
82022;SDS011;71575;49.908;18.356;2023-08-07T06:52:22;1.42;;;0.20;;
82022;SDS011;71575;49.908;18.356;2023-08-07T06:54:50;1.33;;;0.28;;
82022;SDS011;71575;49.908;18.356;2023-08-07T06:57:15;1.98;;;0.20;;
82022;SDS011;71575;49.908;18.356;2023-08-07T06:59:56;2.53;;;0.30;;
82022;SDS011;71575;49.908;18.356;2023-08-07T07:02:37;1.25;;;0.30;;
82022;SDS011;71575;49.908;18.356;2023-08-07T07:05:17;2.58;;;0.45;;
82022;SDS011;71575;49.908;18.356;2023-08-07T07:07:57;1.33;;;0.20;;
82022;SDS011;71575;49.908;18.356;2023-08-07T07:10:37;2.83;;;0.20;;
82022;SDS011;71575;49.908;18.356;2023-08-07T07:13:18;0.95;;;0.10;;
82022;SDS011;71575;49.908;18.356;2023-08-07T07:15:58;1.65;;;0.17;;
82022;SDS011;71575;49.908;18.356;2023-08-07T07:18:39;2.15;;;0.30;;
82022;SDS011;71575;49.908;18.356;2023-08-07T07:21:12;1.38;;;0.15;;
82022;SDS011;71575;49.908;18.356;2023-08-07T07:23:37;1.00;;;0.10;;
82022;SDS011;71575;49.908;18.356;2023-08-07T07:26:18;1.40;;;0.30;;
82022;SDS011;71575;49.908;18.356;2023-08-07T07:28:43;1.30;;;0.20;;
82022;SDS011;71575;49.908;18.356;2023-08-07T07:31:09;2.00;;;0.20;;
82022;SDS011;71575;49.908;18.356;2023-08-07T07:33:49;1.23;;;0.30;;
82022;SDS011;71575;49.908;18.356;2023-08-07T07:36:30;1.10;;;0.28;;
82022;SDS011;71575;49.908;18.356;2023-08-07T07:39:10;1.65;;;0.30;;
82022;SDS011;71575;49.908;18.356;2023-08-07T07:41:50;2.33;;;0.13;;
82022;SDS011;71575;49.908;18.356;2023-08-07T07:44:30;2.70;;;0.63;;
82022;SDS011;71575;49.908;18.356;2023-08-07T07:47:11;0.95;;;0.10;;
82022;SDS011;71575;49.908;18.356;2023-08-07T07:50:03;1.42;;;0.10;;
82022;SDS011;71575;49.908;18.356;2023-08-07T07:52:45;2.55;;;0.20;;
82022;SDS011;71575;49.908;18.356;2023-08-07T07:55:25;2.17;;;0.30;;
82022;SDS011;71575;49.908;18.356;2023-08-07T07:58:06;3.65;;;0.20;;
82022;SDS011;71575;49.908;18.356;2023-08-07T08:00:46;2.70;;;0.10;;
82022;SDS011;71575;49.908;18.356;2023-08-07T08:03:13;1.15;;;0.10;;
82022;SDS011;71575;49.908;18.356;2023-08-07T08:05:38;0.95;;;0.20;;
82022;SDS011;71575;49.908;18.356;2023-08-07T08:08:19;2.13;;;0.35;;
82022;SDS011;71575;49.908;18.356;2023-08-07T08:11:00;1.30;;;0.20;;
82022;SDS011;71575;49.908;18.356;2023-08-07T08:13:26;2.13;;;0.10;;
82022;SDS011;71575;49.908;18.356;2023-08-07T08:15:52;0.80;;;0.10;;
82022;SDS011;71575;49.908;18.356;2023-08-07T08:18:18;1.95;;;0.10;;
82022;SDS011;71575;49.908;18.356;2023-08-07T08:20:43;1.45;;;0.10;;
82022;SDS011;71575;49.908;18.356;2023-08-07T08:23:11;1.48;;;0.35;;
82022;SDS011;71575;49.908;18.356;2023-08-07T08:25:37;1.33;;;0.30;;
82022;SDS011;71575;49.908;18.356;2023-08-07T08:28:18;1.25;;;0.10;;
82022;SDS011;71575;49.908;18.356;2023-08-07T08:30:59;0.90;;;0.10;;
82022;SDS011;71575;49.908;18.356;2023-08-07T08:33:25;1.73;;;0.17;;
82022;SDS011;71575;49.908;18.356;2023-08-07T08:35:50;1.73;;;0.32;;
82022;SDS011;71575;49.908;18.356;2023-08-07T08:38:30;1.13;;;0.20;;
82022;SDS011;71575;49.908;18.356;2023-08-07T08:41:11;2.72;;;0.20;;
82022;SDS011;71575;49.908;18.356;2023-08-07T08:43:51;1.88;;;0.00;;
82022;SDS011;71575;49.908;18.356;2023-08-07T08:46:32;1.33;;;0.10;;
82022;SDS011;71575;49.908;18.356;2023-08-07T08:49:13;2.10;;;0.10;;
82022;SDS011;71575;49.908;18.356;2023-08-07T08:51:56;0.70;;;0.10;;
82022;SDS011;71575;49.908;18.356;2023-08-07T08:54:22;1.80;;;0.10;;
82022;SDS011;71575;49.908;18.356;2023-08-07T08:56:48;1.05;;;0.22;;
82022;SDS011;71575;49.908;18.356;2023-08-07T08:59:29;1.73;;;0.20;;
82022;SDS011;71575;49.908;18.356;2023-08-07T09:02:10;1.23;;;0.20;;
82022;SDS011;71575;49.908;18.356;2023-08-07T09:04:50;1.95;;;0.40;;
82022;SDS011;71575;49.908;18.356;2023-08-07T09:07:16;2.08;;;0.20;;
82022;SDS011;71575;49.908;18.356;2023-08-07T09:09:44;1.52;;;0.10;;
82022;SDS011;71575;49.908;18.356;2023-08-07T09:12:19;1.85;;;0.22;;
82022;SDS011;71575;49.908;18.356;2023-08-07T09:14:47;2.78;;;0.63;;
82022;SDS011;71575;49.908;18.356;2023-08-07T09:17:31;0.70;;;0.10;;
82022;SDS011;71575;49.908;18.356;2023-08-07T09:20:13;1.10;;;0.03;;
82022;SDS011;71575;49.908;18.356;2023-08-07T09:22:54;1.00;;;0.10;;
82022;SDS011;71575;49.908;18.356;2023-08-07T09:25:34;2.40;;;0.30;;
82022;SDS011;71575;49.908;18.356;2023-08-07T09:28:14;1.73;;;0.10;;
82022;SDS011;71575;49.908;18.356;2023-08-07T09:30:40;1.30;;;0.20;;
82022;SDS011;71575;49.908;18.356;2023-08-07T09:33:06;2.67;;;0.22;;
82022;SDS011;71575;49.908;18.356;2023-08-07T09:35:47;2.28;;;0.35;;
82022;SDS011;71575;49.908;18.356;2023-08-07T09:38:31;18.52;;;9.45;;
82022;SDS011;71575;49.908;18.356;2023-08-07T09:41:12;1.90;;;0.98;;
82022;SDS011;71575;49.908;18.356;2023-08-07T09:43:52;2.65;;;0.30;;
82022;SDS011;71575;49.908;18.356;2023-08-07T09:46:40;1.98;;;0.73;;
82022;SDS011;71575;49.908;18.356;2023-08-07T09:49:24;3.10;;;1.00;;
82022;SDS011;71575;49.908;18.356;2023-08-07T09:54:57;1.88;;;0.60;;
82022;SDS011;71575;49.908;18.356;2023-08-07T09:57:37;1.60;;;0.10;;
82022;SDS011;71575;49.908;18.356;2023-08-07T10:00:18;1.33;;;0.15;;
82022;SDS011;71575;49.908;18.356;2023-08-07T10:02:44;0.93;;;0.15;;
82022;SDS011;71575;49.908;18.356;2023-08-07T10:05:11;1.45;;;0.43;;
82022;SDS011;71575;49.908;18.356;2023-08-07T10:07:37;1.40;;;0.32;;
82022;SDS011;71575;49.908;18.356;2023-08-07T10:10:03;1.80;;;0.40;;
82022;SDS011;71575;49.908;18.356;2023-08-07T10:12:44;1.48;;;0.32;;
82022;SDS011;71575;49.908;18.356;2023-08-07T10:15:25;2.20;;;0.30;;
82022;SDS011;71575;49.908;18.356;2023-08-07T10:17:52;1.67;;;0.85;;
82022;SDS011;71575;49.908;18.356;2023-08-07T10:20:18;1.98;;;0.60;;
82022;SDS011;71575;49.908;18.356;2023-08-07T10:23:09;1.58;;;0.30;;
82022;SDS011;71575;49.908;18.356;2023-08-07T10:25:50;1.83;;;0.22;;
82022;SDS011;71575;49.908;18.356;2023-08-07T10:28:31;1.95;;;0.28;;
82022;SDS011;71575;49.908;18.356;2023-08-07T10:30:59;2.17;;;0.30;;
82022;SDS011;71575;49.908;18.356;2023-08-07T10:33:24;2.60;;;0.57;;
82022;SDS011;71575;49.908;18.356;2023-08-07T10:36:08;4.22;;;0.60;;
82022;SDS011;71575;49.908;18.356;2023-08-07T10:38:50;7.22;;;0.32;;
82022;SDS011;71575;49.908;18.356;2023-08-07T10:41:37;2.17;;;0.30;;
82022;SDS011;71575;49.908;18.356;2023-08-07T10:47:05;3.38;;;0.70;;
82022;SDS011;71575;49.908;18.356;2023-08-07T10:49:45;4.63;;;0.30;;
82022;SDS011;71575;49.908;18.356;2023-08-07T10:52:26;4.35;;;0.30;;
82022;SDS011;71575;49.908;18.356;2023-08-07T10:55:14;2.60;;;0.40;;
82022;SDS011;71575;49.908;18.356;2023-08-07T10:57:54;4.47;;;0.60;;
82022;SDS011;71575;49.908;18.356;2023-08-07T11:00:34;3.50;;;0.57;;
82022;SDS011;71575;49.908;18.356;2023-08-07T11:03:01;3.65;;;0.35;;
82022;SDS011;71575;49.908;18.356;2023-08-07T11:05:28;3.03;;;0.73;;
82022;SDS011;71575;49.908;18.356;2023-08-07T11:08:11;3.28;;;0.43;;
82022;SDS011;71575;49.908;18.356;2023-08-07T11:10:52;4.32;;;0.30;;
82022;SDS011;71575;49.908;18.356;2023-08-07T11:13:33;2.80;;;0.35;;
82022;SDS011;71575;49.908;18.356;2023-08-07T11:16:14;3.33;;;0.45;;
82022;SDS011;71575;49.908;18.356;2023-08-07T11:18:40;4.10;;;0.50;;
82022;SDS011;71575;49.908;18.356;2023-08-07T11:21:05;4.40;;;1.60;;
82022;SDS011;71575;49.908;18.356;2023-08-07T11:23:45;3.08;;;0.32;;
82022;SDS011;71575;49.908;18.356;2023-08-07T11:26:26;4.55;;;0.40;;
82022;SDS011;71575;49.908;18.356;2023-08-07T11:29:06;3.65;;;0.32;;
82022;SDS011;71575;49.908;18.356;2023-08-07T11:31:47;3.05;;;0.50;;
82022;SDS011;71575;49.908;18.356;2023-08-07T11:34:20;4.72;;;0.63;;
82022;SDS011;71575;49.908;18.356;2023-08-07T11:36:46;3.45;;;0.45;;
82022;SDS011;71575;49.908;18.356;2023-08-07T11:39:26;2.78;;;0.40;;
82022;SDS011;71575;49.908;18.356;2023-08-07T11:42:09;3.83;;;0.28;;
82022;SDS011;71575;49.908;18.356;2023-08-07T11:44:50;3.38;;;0.38;;
82022;SDS011;71575;49.908;18.356;2023-08-07T11:47:30;3.10;;;0.52;;
82022;SDS011;71575;49.908;18.356;2023-08-07T11:50:10;2.85;;;0.50;;
82022;SDS011;71575;49.908;18.356;2023-08-07T11:52:51;3.65;;;0.40;;
82022;SDS011;71575;49.908;18.356;2023-08-07T11:55:31;4.57;;;0.68;;
82022;SDS011;71575;49.908;18.356;2023-08-07T11:57:57;4.28;;;0.32;;
82022;SDS011;71575;49.908;18.356;2023-08-07T12:00:24;5.18;;;0.60;;
82022;SDS011;71575;49.908;18.356;2023-08-07T12:03:22;3.45;;;0.70;;
82022;SDS011;71575;49.908;18.356;2023-08-07T12:05:57;3.08;;;0.80;;
82022;SDS011;71575;49.908;18.356;2023-08-07T12:08:24;3.20;;;0.40;;
82022;SDS011;71575;49.908;18.356;2023-08-07T12:11:11;3.97;;;0.30;;
82022;SDS011;71575;49.908;18.356;2023-08-07T12:13:53;3.20;;;0.43;;
82022;SDS011;71575;49.908;18.356;2023-08-07T12:16:19;4.85;;;0.43;;
82022;SDS011;71575;49.908;18.356;2023-08-07T12:18:45;4.53;;;0.55;;
82022;SDS011;71575;49.908;18.356;2023-08-07T12:21:16;4.47;;;0.82;;
82022;SDS011;71575;49.908;18.356;2023-08-07T12:23:50;4.25;;;0.50;;
82022;SDS011;71575;49.908;18.356;2023-08-07T12:26:31;4.75;;;0.70;;
82022;SDS011;71575;49.908;18.356;2023-08-07T12:29:11;4.95;;;1.15;;
82022;SDS011;71575;49.908;18.356;2023-08-07T12:31:52;4.70;;;1.48;;
82022;SDS011;71575;49.908;18.356;2023-08-07T12:34:32;6.38;;;1.02;;
82022;SDS011;71575;49.908;18.356;2023-08-07T12:37:13;4.97;;;1.50;;
82022;SDS011;71575;49.908;18.356;2023-08-07T12:39:53;4.82;;;1.88;;
82022;SDS011;71575;49.908;18.356;2023-08-07T12:42:33;4.10;;;0.82;;
82022;SDS011;71575;49.908;18.356;2023-08-07T12:44:58;3.53;;;0.60;;
82022;SDS011;71575;49.908;18.356;2023-08-07T12:47:40;4.78;;;0.85;;
82022;SDS011;71575;49.908;18.356;2023-08-07T12:50:20;4.35;;;0.85;;
82022;SDS011;71575;49.908;18.356;2023-08-07T12:53:01;5.05;;;0.80;;
82022;SDS011;71575;49.908;18.356;2023-08-07T12:55:41;5.45;;;0.93;;
82022;SDS011;71575;49.908;18.356;2023-08-07T12:58:22;3.20;;;0.65;;
82022;SDS011;71575;49.908;18.356;2023-08-07T13:00:47;4.13;;;0.60;;
82022;SDS011;71575;49.908;18.356;2023-08-07T13:03:13;5.30;;;0.75;;
82022;SDS011;71575;49.908;18.356;2023-08-07T13:05:53;4.05;;;1.02;;
82022;SDS011;71575;49.908;18.356;2023-08-07T13:08:34;4.00;;;1.20;;
82022;SDS011;71575;49.908;18.356;2023-08-07T13:11:14;4.45;;;0.93;;
82022;SDS011;71575;49.908;18.356;2023-08-07T13:13:54;4.05;;;0.80;;
82022;SDS011;71575;49.908;18.356;2023-08-07T13:16:35;4.63;;;0.90;;
82022;SDS011;71575;49.908;18.356;2023-08-07T13:19:15;4.55;;;1.25;;
82022;SDS011;71575;49.908;18.356;2023-08-07T13:21:56;4.95;;;1.08;;
82022;SDS011;71575;49.908;18.356;2023-08-07T13:24:22;2.83;;;0.50;;
82022;SDS011;71575;49.908;18.356;2023-08-07T13:26:47;3.88;;;0.73;;
82022;SDS011;71575;49.908;18.356;2023-08-07T13:29:27;3.42;;;0.70;;
82022;SDS011;71575;49.908;18.356;2023-08-07T13:32:08;4.07;;;0.60;;
82022;SDS011;71575;49.908;18.356;2023-08-07T13:34:48;4.72;;;3.03;;
82022;SDS011;71575;49.908;18.356;2023-08-07T13:37:29;5.15;;;0.88;;
82022;SDS011;71575;49.908;18.356;2023-08-07T13:40:09;3.15;;;0.60;;
82022;SDS011;71575;49.908;18.356;2023-08-07T13:42:50;3.72;;;0.50;;
82022;SDS011;71575;49.908;18.356;2023-08-07T13:45:30;4.72;;;0.30;;
82022;SDS011;71575;49.908;18.356;2023-08-07T13:48:11;2.72;;;0.52;;
82022;SDS011;71575;49.908;18.356;2023-08-07T13:50:37;3.67;;;0.52;;
82022;SDS011;71575;49.908;18.356;2023-08-07T13:53:03;2.92;;;0.45;;
82022;SDS011;71575;49.908;18.356;2023-08-07T13:55:44;2.45;;;0.38;;
82022;SDS011;71575;49.908;18.356;2023-08-07T13:58:24;3.22;;;0.40;;
82022;SDS011;71575;49.908;18.356;2023-08-07T14:01:05;4.60;;;0.75;;
82022;SDS011;71575;49.908;18.356;2023-08-07T14:03:31;4.38;;;0.73;;
82022;SDS011;71575;49.908;18.356;2023-08-07T14:05:57;3.70;;;0.63;;
82022;SDS011;71575;49.908;18.356;2023-08-07T14:08:37;2.30;;;0.50;;
82022;SDS011;71575;49.908;18.356;2023-08-07T14:11:17;3.53;;;0.50;;
82022;SDS011;71575;49.908;18.356;2023-08-07T14:13:58;2.25;;;0.30;;
82022;SDS011;71575;49.908;18.356;2023-08-07T14:16:39;2.80;;;0.95;;
82022;SDS011;71575;49.908;18.356;2023-08-07T14:19:20;3.22;;;0.32;;
82022;SDS011;71575;49.908;18.356;2023-08-07T14:21:46;2.75;;;0.22;;
82022;SDS011;71575;49.908;18.356;2023-08-07T14:24:12;2.75;;;0.30;;
82022;SDS011;71575;49.908;18.356;2023-08-07T14:26:52;2.22;;;0.30;;
82022;SDS011;71575;49.908;18.356;2023-08-07T14:29:33;2.45;;;0.20;;
82022;SDS011;71575;49.908;18.356;2023-08-07T14:32:13;2.20;;;0.40;;
82022;SDS011;71575;49.908;18.356;2023-08-07T14:34:55;2.72;;;0.30;;
82022;SDS011;71575;49.908;18.356;2023-08-07T14:37:35;2.25;;;0.20;;
82022;SDS011;71575;49.908;18.356;2023-08-07T14:40:15;2.85;;;0.35;;
82022;SDS011;71575;49.908;18.356;2023-08-07T14:42:56;3.15;;;0.60;;
82022;SDS011;71575;49.908;18.356;2023-08-07T14:45:22;3.38;;;0.77;;
82022;SDS011;71575;49.908;18.356;2023-08-07T14:47:48;3.30;;;0.50;;
82022;SDS011;71575;49.908;18.356;2023-08-07T14:50:29;4.03;;;1.45;;
82022;SDS011;71575;49.908;18.356;2023-08-07T14:53:09;4.90;;;0.80;;
82022;SDS011;71575;49.908;18.356;2023-08-07T14:55:51;3.63;;;0.70;;
82022;SDS011;71575;49.908;18.356;2023-08-07T14:58:16;4.13;;;0.93;;
82022;SDS011;71575;49.908;18.356;2023-08-07T15:00:42;5.57;;;0.90;;
82022;SDS011;71575;49.908;18.356;2023-08-07T15:03:12;4.15;;;0.80;;
82022;SDS011;71575;49.908;18.356;2023-08-07T15:05:37;4.25;;;1.08;;
82022;SDS011;71575;49.908;18.356;2023-08-07T15:08:18;4.93;;;0.70;;
82022;SDS011;71575;49.908;18.356;2023-08-07T15:10:58;5.10;;;1.30;;
82022;SDS011;71575;49.908;18.356;2023-08-07T15:13:38;3.78;;;0.85;;